createdAt,value
2017-01-04T00:00:03.869Z,1006.57
2017-01-04T00:00:31.331Z,1006.55
2017-01-04T00:00:58.545Z,1006.58
2017-01-04T00:01:26.003Z,1006.44
2017-01-04T00:01:53.292Z,1006.5
2017-01-04T00:02:19.960Z,1006.61
2017-01-04T00:02:46.906Z,1006.51
2017-01-04T00:03:12.970Z,1006.49
2017-01-04T00:03:39.057Z,1006.45
2017-01-04T00:04:05.160Z,1006.37
2017-01-04T00:04:31.248Z,1006.43
2017-01-04T00:04:57.353Z,1006.5
2017-01-04T00:05:23.456Z,1006.53
2017-01-04T00:05:49.539Z,1006.44
2017-01-04T00:06:15.643Z,1006.43
2017-01-04T00:06:41.749Z,1006.51
2017-01-04T00:07:07.843Z,1006.44
2017-01-04T00:07:33.942Z,1006.41
2017-01-04T00:08:00.052Z,1006.37
2017-01-04T00:08:26.144Z,1006.38
2017-01-04T00:08:52.234Z,1006.26
2017-01-04T00:09:18.340Z,1006.35
2017-01-04T00:09:44.448Z,1006.36
2017-01-04T00:10:10.552Z,1006.44
2017-01-04T00:10:36.647Z,1006.46
2017-01-04T00:11:02.740Z,1006.39
2017-01-04T00:11:28.853Z,1006.45
2017-01-04T00:11:54.953Z,1006.52
2017-01-04T00:12:21.041Z,1006.34
2017-01-04T00:12:47.154Z,1006.39
2017-01-04T00:13:13.251Z,1006.32
2017-01-04T00:13:39.345Z,1006.32
2017-01-04T00:14:05.457Z,1006.37
2017-01-04T00:14:31.565Z,1006.38
2017-01-04T00:14:57.666Z,1006.37
2017-01-04T00:15:23.763Z,1006.45
2017-01-04T00:15:49.851Z,1006.34
2017-01-04T00:16:15.963Z,1006.35
2017-01-04T00:16:42.064Z,1006.29
2017-01-04T00:17:08.152Z,1006.37
2017-01-04T00:17:34.264Z,1006.3
2017-01-04T00:18:00.366Z,1006.34
2017-01-04T00:18:26.461Z,1006.41
2017-01-04T00:18:52.569Z,1006.32
2017-01-04T00:19:18.675Z,1006.29
2017-01-04T00:19:44.756Z,1006.32
2017-01-04T00:20:10.858Z,1006.3
2017-01-04T00:20:36.958Z,1006.29
2017-01-04T00:21:03.068Z,1006.32
2017-01-04T00:21:29.166Z,1006.25
2017-01-04T00:21:55.256Z,1006.26
2017-01-04T00:22:21.364Z,1006.3
2017-01-04T00:22:47.479Z,1006.3
2017-01-04T00:23:13.560Z,1006.2
2017-01-04T00:23:39.664Z,1006.26
2017-01-04T00:24:05.776Z,1006.14
2017-01-04T00:24:31.866Z,1006.28
2017-01-04T00:24:58.011Z,1006.18
2017-01-04T00:25:24.126Z,1006.16
2017-01-04T00:25:50.222Z,1006.31
2017-01-04T00:26:16.326Z,1006.25
2017-01-04T00:26:42.420Z,1006.27
2017-01-04T00:27:08.518Z,1006.29
2017-01-04T00:27:34.632Z,1006.18
2017-01-04T00:28:00.718Z,1006.24
2017-01-04T00:28:26.815Z,1006.21
2017-01-04T00:28:52.927Z,1006.25
2017-01-04T00:29:19.025Z,1006.24
2017-01-04T00:29:45.120Z,1006.23
2017-01-04T00:30:11.230Z,1006.26
2017-01-04T00:30:37.325Z,1006.3
2017-01-04T00:31:03.414Z,1006.17
2017-01-04T00:31:29.524Z,1006.21
2017-01-04T00:31:55.619Z,1006.21
2017-01-04T00:32:21.715Z,1006.17
2017-01-04T00:32:47.820Z,1006.17
2017-01-04T00:33:13.928Z,1006.21
2017-01-04T00:33:40.014Z,1006.15
2017-01-04T00:34:06.110Z,1006.08
2017-01-04T00:34:32.220Z,1006.17
2017-01-04T00:34:58.310Z,1005.96
2017-01-04T00:35:24.408Z,1006.03
2017-01-04T00:35:50.516Z,1006.08
2017-01-04T00:36:16.605Z,1006.14
2017-01-04T00:36:42.698Z,1006.1
2017-01-04T00:37:08.805Z,1006.13
2017-01-04T00:37:34.909Z,1006.12
2017-01-04T00:38:01.012Z,1006.15
2017-01-04T00:38:27.108Z,1006.05
2017-01-04T00:38:53.205Z,1006.1
2017-01-04T00:39:19.317Z,1005.99
2017-01-04T00:39:45.411Z,1006.11
2017-01-04T00:40:11.506Z,1006.04
2017-01-04T00:40:37.614Z,1006.06
2017-01-04T00:41:03.713Z,1006.02
2017-01-04T00:41:29.807Z,1006.02
2017-01-04T00:41:55.913Z,1005.99
2017-01-04T00:42:22.016Z,1006
2017-01-04T00:42:48.114Z,1006.04
2017-01-04T00:43:14.211Z,1006.04
2017-01-04T00:43:40.307Z,1005.84
2017-01-04T00:44:06.419Z,1005.88
2017-01-04T00:44:32.513Z,1005.9
2017-01-04T00:44:58.604Z,1005.94
2017-01-04T00:45:24.712Z,1006.02
2017-01-04T00:45:50.810Z,1005.92
2017-01-04T00:46:16.903Z,1005.76
2017-01-04T00:46:43.007Z,1005.87
2017-01-04T00:47:09.115Z,1005.81
2017-01-04T00:47:35.205Z,1005.8
2017-01-04T00:48:01.303Z,1005.74
2017-01-04T00:48:27.407Z,1005.84
2017-01-04T00:48:53.511Z,1005.68
2017-01-04T00:49:19.610Z,1005.75
2017-01-04T00:49:45.699Z,1005.63
2017-01-04T00:50:11.808Z,1005.69
2017-01-04T00:50:37.919Z,1005.75
2017-01-04T00:51:04.003Z,1005.8
2017-01-04T00:51:30.110Z,1005.74
2017-01-04T00:51:56.220Z,1005.91
2017-01-04T00:52:22.315Z,1005.88
2017-01-04T00:52:48.411Z,1005.78
2017-01-04T00:53:14.520Z,1005.78
2017-01-04T00:53:40.616Z,1005.91
2017-01-04T00:54:06.727Z,1005.9
2017-01-04T00:54:32.816Z,1005.8
2017-01-04T00:54:58.920Z,1005.78
2017-01-04T00:55:25.033Z,1005.91
2017-01-04T00:55:51.125Z,1005.77
2017-01-04T00:56:17.225Z,1005.82
2017-01-04T00:56:43.329Z,1005.86
2017-01-04T00:57:09.427Z,1005.83
2017-01-04T00:57:35.512Z,1005.84
2017-01-04T00:58:01.628Z,1005.83
2017-01-04T00:58:27.720Z,1005.86
2017-01-04T00:58:53.816Z,1005.82
2017-01-04T00:59:19.921Z,1005.78
2017-01-04T00:59:46.019Z,1005.78
2017-01-04T01:00:12.127Z,1005.84
2017-01-04T01:00:38.223Z,1005.92
2017-01-04T01:01:04.321Z,1005.72
2017-01-04T01:01:30.430Z,1005.93
2017-01-04T01:01:56.527Z,1005.85
2017-01-04T01:02:22.612Z,1005.85
2017-01-04T01:02:48.725Z,1005.85
2017-01-04T01:03:14.824Z,1005.82
2017-01-04T01:03:40.915Z,1005.86
2017-01-04T01:04:07.019Z,1005.84
2017-01-04T01:04:33.121Z,1005.74
2017-01-04T01:04:59.220Z,1005.82
2017-01-04T01:05:25.313Z,1005.71
2017-01-04T01:05:51.403Z,1005.83
2017-01-04T01:06:17.504Z,1005.83
2017-01-04T01:06:43.607Z,1005.73
2017-01-04T01:07:09.703Z,1005.85
2017-01-04T01:07:35.805Z,1005.8
2017-01-04T01:08:01.915Z,1005.92
2017-01-04T01:08:28.000Z,1005.72
2017-01-04T01:08:54.103Z,1005.93
2017-01-04T01:09:20.215Z,1005.79
2017-01-04T01:09:46.301Z,1005.81
2017-01-04T01:10:12.397Z,1005.81
2017-01-04T01:10:38.493Z,1005.84
2017-01-04T01:11:04.594Z,1005.73
2017-01-04T01:11:30.696Z,1005.76
2017-01-04T01:11:56.787Z,1005.88
2017-01-04T01:12:22.892Z,1005.79
2017-01-04T01:12:48.993Z,1005.83
2017-01-04T01:13:15.087Z,1005.89
2017-01-04T01:13:41.187Z,1005.82
2017-01-04T01:14:07.302Z,1005.84
2017-01-04T01:14:33.389Z,1005.7
2017-01-04T01:14:59.488Z,1005.76
2017-01-04T01:15:25.593Z,1005.73
2017-01-04T01:15:51.695Z,1005.8
2017-01-04T01:16:17.786Z,1005.75
2017-01-04T01:16:43.896Z,1005.83
2017-01-04T01:17:10.001Z,1005.77
2017-01-04T01:17:36.087Z,1005.77
2017-01-04T01:18:02.191Z,1005.75
2017-01-04T01:18:28.301Z,1005.73
2017-01-04T01:18:54.389Z,1005.73
2017-01-04T01:19:20.486Z,1005.69
2017-01-04T01:19:46.598Z,1005.8
2017-01-04T01:20:12.688Z,1005.51
2017-01-04T01:20:38.790Z,1005.69
2017-01-04T01:21:04.893Z,1005.8
2017-01-04T01:21:30.989Z,1005.69
2017-01-04T01:21:57.097Z,1005.68
2017-01-04T01:22:23.185Z,1005.74
2017-01-04T01:22:49.286Z,1005.7
2017-01-04T01:23:15.401Z,1005.74
2017-01-04T01:23:41.493Z,1005.75
2017-01-04T01:24:07.585Z,1005.71
2017-01-04T01:24:33.694Z,1005.66
2017-01-04T01:24:59.793Z,1005.71
2017-01-04T01:25:25.880Z,1005.64
2017-01-04T01:25:51.993Z,1005.68
2017-01-04T01:26:18.090Z,1005.73
2017-01-04T01:26:44.187Z,1005.75
2017-01-04T01:27:10.294Z,1005.73
2017-01-04T01:27:36.390Z,1005.76
2017-01-04T01:28:02.497Z,1005.65
2017-01-04T01:28:28.588Z,1005.71
2017-01-04T01:28:54.683Z,1005.64
2017-01-04T01:29:20.789Z,1005.66
2017-01-04T01:29:46.889Z,1005.64
2017-01-04T01:30:12.983Z,1005.64
2017-01-04T01:30:39.090Z,1005.6
2017-01-04T01:31:05.196Z,1005.57
2017-01-04T01:31:31.289Z,1005.5
2017-01-04T01:31:57.394Z,1005.61
2017-01-04T01:32:23.500Z,1005.56
2017-01-04T01:32:49.596Z,1005.47
2017-01-04T01:33:15.695Z,1005.41
2017-01-04T01:33:41.783Z,1005.48
2017-01-04T01:34:07.897Z,1005.42
2017-01-04T01:34:34.003Z,1005.57
2017-01-04T01:35:00.095Z,1005.47
2017-01-04T01:35:26.197Z,1005.42
2017-01-04T01:35:52.313Z,1005.46
2017-01-04T01:36:18.395Z,1005.5
2017-01-04T01:36:44.500Z,1005.43
2017-01-04T01:37:10.634Z,1005.45
2017-01-04T01:37:36.731Z,1005.42
2017-01-04T01:38:02.830Z,1005.46
2017-01-04T01:38:28.923Z,1005.47
2017-01-04T01:38:55.028Z,1005.31
2017-01-04T01:39:21.144Z,1005.34
2017-01-04T01:39:47.230Z,1005.24
2017-01-04T01:40:13.332Z,1005.34
2017-01-04T01:40:39.437Z,1005.33
2017-01-04T01:41:05.531Z,1005.38
2017-01-04T01:41:31.633Z,1005.34
2017-01-04T01:41:57.775Z,1005.32
2017-01-04T01:42:23.873Z,1005.28
2017-01-04T01:42:49.966Z,1005.27
2017-01-04T01:43:16.074Z,1005.26
2017-01-04T01:43:42.166Z,1005.31
2017-01-04T01:44:08.277Z,1005.35
2017-01-04T01:44:34.364Z,1005.22
2017-01-04T01:45:00.460Z,1005.26
2017-01-04T01:45:26.566Z,1005.25
2017-01-04T01:45:52.666Z,1005.24
2017-01-04T01:46:18.759Z,1005.21
2017-01-04T01:46:44.872Z,1005.16
2017-01-04T01:47:10.968Z,1005.09
2017-01-04T01:47:37.059Z,1005.18
2017-01-04T01:48:03.167Z,1005.22
2017-01-04T01:48:29.267Z,1005.07
2017-01-04T01:48:55.363Z,1005.21
2017-01-04T01:49:21.463Z,1005.18
2017-01-04T01:49:47.553Z,1005.17
2017-01-04T01:50:13.666Z,1005.24
2017-01-04T01:50:39.771Z,1005.18
2017-01-04T01:51:05.861Z,1005.18
2017-01-04T01:51:31.967Z,1005.19
2017-01-04T01:51:58.062Z,1005.22
2017-01-04T01:52:24.158Z,1005.13
2017-01-04T01:52:50.258Z,1005.26
2017-01-04T01:53:16.371Z,1005.09
2017-01-04T01:53:42.455Z,1005.25
2017-01-04T01:54:08.559Z,1005.1
2017-01-04T01:54:34.663Z,1005.16
2017-01-04T01:55:00.755Z,1005.13
2017-01-04T01:55:26.863Z,1005.19
2017-01-04T01:55:53.004Z,1005.2
2017-01-04T01:56:19.108Z,1005.13
2017-01-04T01:56:45.215Z,1005.1
2017-01-04T01:57:11.308Z,1005.08
2017-01-04T01:57:37.410Z,1005.03
2017-01-04T01:58:03.514Z,1005.06
2017-01-04T01:58:29.604Z,1005.05
2017-01-04T01:58:55.704Z,1005.05
2017-01-04T01:59:21.809Z,1004.97
2017-01-04T01:59:47.905Z,1005.04
2017-01-04T02:00:13.998Z,1005
2017-01-04T02:00:40.116Z,1004.88
2017-01-04T02:01:06.212Z,1005
2017-01-04T02:01:32.303Z,1005.01
2017-01-04T02:01:58.413Z,1005
2017-01-04T02:02:24.515Z,1005
2017-01-04T02:02:50.613Z,1004.96
2017-01-04T02:03:16.717Z,1004.96
2017-01-04T02:03:42.824Z,1005.04
2017-01-04T02:04:08.909Z,1005.02
2017-01-04T02:04:35.010Z,1004.92
2017-01-04T02:05:01.121Z,1004.97
2017-01-04T02:05:27.211Z,1004.96
2017-01-04T02:05:53.314Z,1004.97
2017-01-04T02:06:19.407Z,1004.94
2017-01-04T02:06:45.518Z,1004.93
2017-01-04T02:07:11.628Z,1005
2017-01-04T02:07:37.714Z,1004.92
2017-01-04T02:08:03.813Z,1004.78
2017-01-04T02:08:29.915Z,1004.83
2017-01-04T02:08:56.012Z,1004.92
2017-01-04T02:09:22.107Z,1004.89
2017-01-04T02:09:48.221Z,1004.82
2017-01-04T02:10:14.312Z,1004.89
2017-01-04T02:10:40.406Z,1004.87
2017-01-04T02:11:06.515Z,1004.85
2017-01-04T02:11:32.614Z,1004.81
2017-01-04T02:11:58.721Z,1004.89
2017-01-04T02:12:24.809Z,1004.95
2017-01-04T02:12:50.903Z,1004.84
2017-01-04T02:13:17.014Z,1005.01
2017-01-04T02:13:43.107Z,1004.9
2017-01-04T02:14:09.203Z,1004.99
2017-01-04T02:14:35.311Z,1005.09
2017-01-04T02:15:01.412Z,1005.11
2017-01-04T02:15:27.507Z,1005.14
2017-01-04T02:15:53.612Z,1005.03
2017-01-04T02:16:19.711Z,1005.02
2017-01-04T02:16:45.800Z,1005.07
2017-01-04T02:17:11.901Z,1005.05
2017-01-04T02:17:37.990Z,1004.96
2017-01-04T02:18:04.105Z,1005.01
2017-01-04T02:18:30.205Z,1005.04
2017-01-04T02:18:56.294Z,1005.1
2017-01-04T02:19:22.398Z,1004.96
2017-01-04T02:19:48.497Z,1005
2017-01-04T02:20:14.589Z,1005.03
2017-01-04T02:20:40.689Z,1004.9
2017-01-04T02:21:06.801Z,1004.99
2017-01-04T02:21:32.887Z,1004.96
2017-01-04T02:21:58.989Z,1005.02
2017-01-04T02:22:25.095Z,1004.99
2017-01-04T02:22:51.188Z,1005.08
2017-01-04T02:23:17.292Z,1005.18
2017-01-04T02:23:43.385Z,1005.02
2017-01-04T02:24:09.489Z,1005.14
2017-01-04T02:24:35.600Z,1005.15
2017-01-04T02:25:01.681Z,1005.13
2017-01-04T02:25:27.787Z,1005.13
2017-01-04T02:25:53.894Z,1005.15
2017-01-04T02:26:19.985Z,1005.2
2017-01-04T02:26:46.087Z,1005.05
2017-01-04T02:27:12.196Z,1005.1
2017-01-04T02:27:38.288Z,1005.03
2017-01-04T02:28:04.377Z,1005.01
2017-01-04T02:28:30.482Z,1005.01
2017-01-04T02:28:56.584Z,1004.98
2017-01-04T02:29:22.692Z,1005.04
2017-01-04T02:29:48.789Z,1004.89
2017-01-04T02:30:14.888Z,1005
2017-01-04T02:30:41.001Z,1004.97
2017-01-04T02:31:07.089Z,1004.99
2017-01-04T02:31:33.186Z,1004.95
2017-01-04T02:31:59.292Z,1004.9
2017-01-04T02:32:25.390Z,1004.97
2017-01-04T02:32:51.477Z,1004.85
2017-01-04T02:33:17.591Z,1004.86
2017-01-04T02:33:43.692Z,1004.87
2017-01-04T02:34:09.792Z,1004.85
2017-01-04T02:34:35.886Z,1004.93
2017-01-04T02:35:01.978Z,1004.9
2017-01-04T02:35:28.083Z,1004.87
2017-01-04T02:35:54.182Z,1004.76
2017-01-04T02:36:20.271Z,1004.85
2017-01-04T02:36:46.383Z,1004.97
2017-01-04T02:37:12.479Z,1004.94
2017-01-04T02:37:38.575Z,1004.81
2017-01-04T02:38:04.680Z,1004.85
2017-01-04T02:38:30.791Z,1004.96
2017-01-04T02:38:56.880Z,1004.86
2017-01-04T02:39:22.976Z,1004.94
2017-01-04T02:39:49.071Z,1004.86
2017-01-04T02:40:15.176Z,1004.9
2017-01-04T02:40:41.278Z,1004.94
2017-01-04T02:41:07.364Z,1004.91
2017-01-04T02:41:33.473Z,1004.96
2017-01-04T02:41:59.586Z,1004.9
2017-01-04T02:42:25.670Z,1004.89
2017-01-04T02:42:51.772Z,1004.86
2017-01-04T02:43:17.875Z,1004.85
2017-01-04T02:43:43.969Z,1004.84
2017-01-04T02:44:10.063Z,1004.88
2017-01-04T02:44:36.203Z,1004.82
2017-01-04T02:45:02.300Z,1004.89
2017-01-04T02:45:28.393Z,1004.87
2017-01-04T02:45:54.503Z,1004.89
2017-01-04T02:46:20.807Z,1004.91
2017-01-04T02:46:46.897Z,1004.77
2017-01-04T02:47:12.999Z,1004.82
2017-01-04T02:47:39.106Z,1004.8
2017-01-04T02:48:05.204Z,1004.83
2017-01-04T02:48:31.306Z,1004.75
2017-01-04T02:48:57.411Z,1004.83
2017-01-04T02:49:23.502Z,1004.83
2017-01-04T02:49:49.604Z,1004.78
2017-01-04T02:50:15.713Z,1004.73
2017-01-04T02:50:41.804Z,1004.7
2017-01-04T02:51:07.905Z,1004.72
2017-01-04T02:51:34.002Z,1004.67
2017-01-04T02:52:00.105Z,1004.7
2017-01-04T02:52:26.214Z,1004.62
2017-01-04T02:52:52.300Z,1004.65
2017-01-04T02:53:18.401Z,1004.65
2017-01-04T02:53:44.505Z,1004.54
2017-01-04T02:54:10.629Z,1004.55
2017-01-04T02:54:36.702Z,1004.62
2017-01-04T02:55:02.813Z,1004.59
2017-01-04T02:55:28.903Z,1004.6
2017-01-04T02:55:54.993Z,1004.64
2017-01-04T02:56:21.098Z,1004.62
2017-01-04T02:56:47.205Z,1004.65
2017-01-04T02:57:13.309Z,1004.5
2017-01-04T02:57:39.403Z,1004.51
2017-01-04T02:58:05.499Z,1004.57
2017-01-04T02:58:31.630Z,1004.52
2017-01-04T02:58:57.723Z,1004.49
2017-01-04T02:59:23.816Z,1004.6
2017-01-04T02:59:49.925Z,1004.55
2017-01-04T03:00:16.016Z,1004.57
2017-01-04T03:00:42.107Z,1004.62
2017-01-04T03:01:08.216Z,1004.57
2017-01-04T03:01:34.323Z,1004.52
2017-01-04T03:02:00.419Z,1004.54
2017-01-04T03:02:26.511Z,1004.56
2017-01-04T03:02:52.604Z,1004.57
2017-01-04T03:03:18.713Z,1004.63
2017-01-04T03:03:44.811Z,1004.53
2017-01-04T03:04:10.903Z,1004.5
2017-01-04T03:04:37.010Z,1004.47
2017-01-04T03:05:03.108Z,1004.41
2017-01-04T03:05:29.201Z,1004.49
2017-01-04T03:05:55.307Z,1004.49
2017-01-04T03:06:21.415Z,1004.49
2017-01-04T03:06:47.498Z,1004.47
2017-01-04T03:07:13.596Z,1004.54
2017-01-04T03:07:39.699Z,1004.43
2017-01-04T03:08:05.804Z,1004.49
2017-01-04T03:08:31.902Z,1004.44
2017-01-04T03:08:57.992Z,1004.41
2017-01-04T03:09:24.100Z,1004.48
2017-01-04T03:09:50.209Z,1004.35
2017-01-04T03:10:16.296Z,1004.45
2017-01-04T03:10:42.396Z,1004.26
2017-01-04T03:11:08.501Z,1004.52
2017-01-04T03:11:34.599Z,1004.44
2017-01-04T03:12:00.695Z,1004.51
2017-01-04T03:12:26.802Z,1004.47
2017-01-04T03:12:52.895Z,1004.46
2017-01-04T03:13:19.004Z,1004.47
2017-01-04T03:13:45.099Z,1004.42
2017-01-04T03:14:11.198Z,1004.43
2017-01-04T03:14:37.306Z,1004.42
2017-01-04T03:15:03.397Z,1004.44
2017-01-04T03:15:29.492Z,1004.42
2017-01-04T03:15:55.599Z,1004.39
2017-01-04T03:16:21.691Z,1004.45
2017-01-04T03:16:47.786Z,1004.45
2017-01-04T03:17:13.900Z,1004.48
2017-01-04T03:17:40.000Z,1004.49
2017-01-04T03:18:06.093Z,1004.37
2017-01-04T03:18:32.204Z,1004.45
2017-01-04T03:18:58.303Z,1004.45
2017-01-04T03:19:24.411Z,1004.5
2017-01-04T03:19:50.503Z,1004.4
2017-01-04T03:20:16.591Z,1004.45
2017-01-04T03:20:42.710Z,1004.38
2017-01-04T03:21:08.810Z,1004.43
2017-01-04T03:21:34.897Z,1004.41
2017-01-04T03:22:01.005Z,1004.4
2017-01-04T03:22:27.104Z,1004.41
2017-01-04T03:22:53.198Z,1004.44
2017-01-04T03:23:19.310Z,1004.41
2017-01-04T03:23:45.414Z,1004.39
2017-01-04T03:24:11.508Z,1004.4
2017-01-04T03:24:37.602Z,1004.29
2017-01-04T03:25:03.696Z,1004.24
2017-01-04T03:25:29.802Z,1004.28
2017-01-04T03:25:55.911Z,1004.29
2017-01-04T03:26:21.996Z,1004.31
2017-01-04T03:26:48.099Z,1004.33
2017-01-04T03:27:14.207Z,1004.3
2017-01-04T03:27:40.294Z,1004.28
2017-01-04T03:28:06.395Z,1004.36
2017-01-04T03:28:32.501Z,1004.36
2017-01-04T03:28:58.596Z,1004.39
2017-01-04T03:29:24.692Z,1004.41
2017-01-04T03:29:50.795Z,1004.37
2017-01-04T03:30:16.895Z,1004.33
2017-01-04T03:30:42.991Z,1004.36
2017-01-04T03:31:09.101Z,1004.28
2017-01-04T03:31:35.197Z,1004.32
2017-01-04T03:32:01.281Z,1004.32
2017-01-04T03:32:27.394Z,1004.32
2017-01-04T03:32:53.500Z,1004.27
2017-01-04T03:33:19.590Z,1004.21
2017-01-04T03:33:45.688Z,1004.27
2017-01-04T03:34:11.783Z,1004.29
2017-01-04T03:34:37.892Z,1004.21
2017-01-04T03:35:03.989Z,1004.2
2017-01-04T03:35:30.091Z,1004.27
2017-01-04T03:35:56.186Z,1004.23
2017-01-04T03:36:22.286Z,1004.24
2017-01-04T03:36:48.397Z,1004.25
2017-01-04T03:37:14.487Z,1004.32
2017-01-04T03:37:40.579Z,1004.26
2017-01-04T03:38:06.698Z,1004.28
2017-01-04T03:38:32.794Z,1004.25
2017-01-04T03:38:58.892Z,1004.26
2017-01-04T03:39:24.994Z,1004.29
2017-01-04T03:39:51.093Z,1004.24
2017-01-04T03:40:17.187Z,1004.25
2017-01-04T03:40:43.292Z,1004.25
2017-01-04T03:41:09.386Z,1004.2
2017-01-04T03:41:35.498Z,1004.2
2017-01-04T03:42:01.587Z,1004.23
2017-01-04T03:42:27.681Z,1004.22
2017-01-04T03:42:53.787Z,1004.2
2017-01-04T03:43:19.896Z,1004.26
2017-01-04T03:43:45.983Z,1004.21
2017-01-04T03:44:12.087Z,1004.13
2017-01-04T03:44:38.191Z,1004.07
2017-01-04T03:45:04.279Z,1004.22
2017-01-04T03:45:30.381Z,1004.17
2017-01-04T03:45:56.492Z,1004.21
2017-01-04T03:46:22.585Z,1004.16
2017-01-04T03:46:48.689Z,1004.17
2017-01-04T03:47:14.780Z,1004.1
2017-01-04T03:47:40.886Z,1004.13
2017-01-04T03:48:06.996Z,1004.16
2017-01-04T03:48:33.079Z,1004.16
2017-01-04T03:48:59.178Z,1004.16
2017-01-04T03:49:25.292Z,1004.19
2017-01-04T03:49:51.386Z,1004.16
2017-01-04T03:50:17.489Z,1004.16
2017-01-04T03:50:43.603Z,1004.13
2017-01-04T03:51:09.701Z,1004.15
2017-01-04T03:51:35.791Z,1004.13
2017-01-04T03:52:02.043Z,1004.11
2017-01-04T03:52:28.139Z,1004.1
2017-01-04T03:52:54.244Z,1004.09
2017-01-04T03:53:20.333Z,1004.12
2017-01-04T03:53:46.438Z,1004.07
2017-01-04T03:54:12.544Z,1004.09
2017-01-04T03:54:38.642Z,1004.16
2017-01-04T03:55:04.733Z,1004.07
2017-01-04T03:55:30.850Z,1004.19
2017-01-04T03:55:56.946Z,1004.14
2017-01-04T03:56:23.040Z,1004.11
2017-01-04T03:56:49.144Z,1004.14
2017-01-04T03:57:15.245Z,1004.12
2017-01-04T03:57:41.350Z,1004.1
2017-01-04T03:58:07.444Z,1004.13
2017-01-04T03:58:33.538Z,1004.11
2017-01-04T03:58:59.650Z,1004.18
2017-01-04T03:59:25.751Z,1004.28
2017-01-04T03:59:51.845Z,1004.19
2017-01-04T04:00:17.956Z,1004.14
2017-01-04T04:00:44.061Z,1004.09
2017-01-04T04:01:10.147Z,1004.09
2017-01-04T04:01:36.258Z,1004.07
2017-01-04T04:02:02.359Z,1004.08
2017-01-04T04:02:28.453Z,1004.12
2017-01-04T04:02:54.552Z,1004.01
2017-01-04T04:03:20.643Z,1004.11
2017-01-04T04:03:46.751Z,1004.05
2017-01-04T04:04:12.859Z,1004
2017-01-04T04:04:38.949Z,1003.96
2017-01-04T04:05:05.060Z,1003.93
2017-01-04T04:05:31.164Z,1004.04
2017-01-04T04:05:57.258Z,1003.95
2017-01-04T04:06:23.354Z,1003.89
2017-01-04T04:06:49.468Z,1003.99
2017-01-04T04:07:15.559Z,1004.02
2017-01-04T04:07:41.662Z,1004.01
2017-01-04T04:08:07.765Z,1003.92
2017-01-04T04:08:33.856Z,1004.09
2017-01-04T04:08:59.966Z,1003.91
2017-01-04T04:09:26.054Z,1003.91
2017-01-04T04:09:52.158Z,1004.18
2017-01-04T04:10:18.264Z,1004.01
2017-01-04T04:10:44.355Z,1003.96
2017-01-04T04:11:10.450Z,1003.96
2017-01-04T04:11:36.562Z,1003.94
2017-01-04T04:12:02.659Z,1003.96
2017-01-04T04:12:28.743Z,1003.95
2017-01-04T04:12:54.859Z,1004
2017-01-04T04:13:20.953Z,1004.02
2017-01-04T04:13:47.048Z,1004.07
2017-01-04T04:14:13.155Z,1004.05
2017-01-04T04:14:39.283Z,1003.99
2017-01-04T04:15:05.368Z,1003.97
2017-01-04T04:15:31.472Z,1003.97
2017-01-04T04:15:57.582Z,1003.88
2017-01-04T04:16:23.668Z,1003.88
2017-01-04T04:16:49.770Z,1003.87
2017-01-04T04:17:15.878Z,1003.94
2017-01-04T04:17:41.969Z,1003.95
2017-01-04T04:18:08.065Z,1004.05
2017-01-04T04:18:34.174Z,1003.88
2017-01-04T04:19:00.270Z,1003.91
2017-01-04T04:19:26.368Z,1003.88
2017-01-04T04:19:52.469Z,1003.98
2017-01-04T04:20:18.576Z,1003.98
2017-01-04T04:20:44.688Z,1004.02
2017-01-04T04:21:10.776Z,1004.03
2017-01-04T04:21:36.872Z,1003.89
2017-01-04T04:22:03.008Z,1003.95
2017-01-04T04:22:29.105Z,1003.99
2017-01-04T04:22:55.192Z,1003.94
2017-01-04T04:23:21.307Z,1003.98
2017-01-04T04:23:47.403Z,1003.99
2017-01-04T04:24:13.499Z,1003.8
2017-01-04T04:24:39.605Z,1003.95
2017-01-04T04:25:05.705Z,1003.92
2017-01-04T04:25:31.808Z,1003.8
2017-01-04T04:25:57.903Z,1003.91
2017-01-04T04:26:23.992Z,1003.94
2017-01-04T04:26:50.103Z,1003.82
2017-01-04T04:27:16.196Z,1003.9
2017-01-04T04:27:42.285Z,1003.83
2017-01-04T04:28:08.397Z,1003.91
2017-01-04T04:28:34.502Z,1003.78
2017-01-04T04:29:00.591Z,1003.92
2017-01-04T04:29:26.694Z,1003.9
2017-01-04T04:29:52.800Z,1003.89
2017-01-04T04:30:18.889Z,1003.96
2017-01-04T04:30:44.993Z,1003.97
2017-01-04T04:31:11.088Z,1003.87
2017-01-04T04:31:37.196Z,1003.96
2017-01-04T04:32:03.296Z,1003.87
2017-01-04T04:32:29.389Z,1004.03
2017-01-04T04:32:55.491Z,1003.98
2017-01-04T04:33:21.603Z,1003.94
2017-01-04T04:33:47.689Z,1003.99
2017-01-04T04:34:13.786Z,1004.01
2017-01-04T04:34:39.898Z,1004.02
2017-01-04T04:35:05.987Z,1003.98
2017-01-04T04:35:32.086Z,1004.02
2017-01-04T04:35:58.190Z,1003.87
2017-01-04T04:36:24.282Z,1004.06
2017-01-04T04:36:50.375Z,1004.02
2017-01-04T04:37:16.487Z,1003.97
2017-01-04T04:37:42.580Z,1003.98
2017-01-04T04:38:08.671Z,1004.01
2017-01-04T04:38:34.773Z,1004
2017-01-04T04:39:00.873Z,1003.93
2017-01-04T04:39:26.964Z,1003.92
2017-01-04T04:39:53.067Z,1003.98
2017-01-04T04:40:19.177Z,1004.01
2017-01-04T04:40:45.265Z,1003.86
2017-01-04T04:41:11.369Z,1004.06
2017-01-04T04:41:37.472Z,1003.9
2017-01-04T04:42:03.564Z,1003.99
2017-01-04T04:42:29.664Z,1003.94
2017-01-04T04:42:55.756Z,1003.97
2017-01-04T04:43:21.855Z,1003.95
2017-01-04T04:43:47.969Z,1003.99
2017-01-04T04:44:14.058Z,1004.03
2017-01-04T04:44:40.162Z,1003.96
2017-01-04T04:45:06.270Z,1004.01
2017-01-04T04:45:32.359Z,1004.04
2017-01-04T04:45:58.451Z,1004.03
2017-01-04T04:46:24.565Z,1004.02
2017-01-04T04:46:50.658Z,1003.94
2017-01-04T04:47:16.752Z,1004.02
2017-01-04T04:47:42.852Z,1004.03
2017-01-04T04:48:08.962Z,1004.01
2017-01-04T04:48:35.073Z,1004.02
2017-01-04T04:49:01.161Z,1003.93
2017-01-04T04:49:27.257Z,1004.05
2017-01-04T04:49:53.363Z,1003.98
2017-01-04T04:50:19.457Z,1003.94
2017-01-04T04:50:45.545Z,1003.97
2017-01-04T04:51:11.663Z,1003.9
2017-01-04T04:51:37.758Z,1003.88
2017-01-04T04:52:03.856Z,1003.91
2017-01-04T04:52:29.961Z,1003.9
2017-01-04T04:52:56.060Z,1003.87
2017-01-04T04:53:22.162Z,1003.91
2017-01-04T04:53:48.257Z,1003.92
2017-01-04T04:54:14.350Z,1003.86
2017-01-04T04:54:40.462Z,1003.87
2017-01-04T04:55:06.564Z,1003.85
2017-01-04T04:55:32.656Z,1003.91
2017-01-04T04:55:58.766Z,1003.84
2017-01-04T04:56:24.868Z,1003.88
2017-01-04T04:56:50.954Z,1003.82
2017-01-04T04:57:17.060Z,1003.9
2017-01-04T04:57:43.167Z,1003.83
2017-01-04T04:58:09.258Z,1003.76
2017-01-04T04:58:35.359Z,1003.81
2017-01-04T04:59:01.468Z,1003.77
2017-01-04T04:59:27.561Z,1003.75
2017-01-04T04:59:53.658Z,1003.76
2017-01-04T05:00:19.768Z,1003.65
2017-01-04T05:00:45.860Z,1003.68
2017-01-04T05:01:11.947Z,1003.63
2017-01-04T05:01:38.056Z,1003.68
2017-01-04T05:02:04.156Z,1003.71
2017-01-04T05:02:30.241Z,1003.74
2017-01-04T05:02:56.352Z,1003.69
2017-01-04T05:03:22.452Z,1003.59
2017-01-04T05:03:48.546Z,1003.67
2017-01-04T05:04:14.651Z,1003.61
2017-01-04T05:04:40.737Z,1003.58
2017-01-04T05:05:06.849Z,1003.64
2017-01-04T05:05:32.953Z,1003.61
2017-01-04T05:05:59.041Z,1003.5
2017-01-04T05:06:25.143Z,1003.55
2017-01-04T05:06:51.245Z,1003.57
2017-01-04T05:07:17.338Z,1003.55
2017-01-04T05:07:43.438Z,1003.6
2017-01-04T05:08:09.550Z,1003.64
2017-01-04T05:08:35.632Z,1003.6
2017-01-04T05:09:01.738Z,1003.67
2017-01-04T05:09:27.838Z,1003.68
2017-01-04T05:09:53.931Z,1003.61
2017-01-04T05:10:20.037Z,1003.63
2017-01-04T05:10:46.125Z,1003.53
2017-01-04T05:11:12.235Z,1003.63
2017-01-04T05:11:38.341Z,1003.6
2017-01-04T05:12:04.433Z,1003.67
2017-01-04T05:12:30.536Z,1003.59
2017-01-04T05:12:56.648Z,1003.68
2017-01-04T05:13:22.732Z,1003.65
2017-01-04T05:13:48.829Z,1003.64
2017-01-04T05:14:14.934Z,1003.76
2017-01-04T05:14:41.033Z,1003.66
2017-01-04T05:15:07.125Z,1003.69
2017-01-04T05:15:33.225Z,1003.43
2017-01-04T05:15:59.328Z,1003.74
2017-01-04T05:16:25.439Z,1003.71
2017-01-04T05:16:51.531Z,1003.71